createdAt,value
2023-03-13T00:01:50.190Z,8.80
2023-03-13T00:04:16.801Z,8.80
2023-03-13T00:06:43.466Z,8.80
2023-03-13T00:09:12.088Z,8.80
2023-03-13T00:11:38.687Z,8.80
2023-03-13T00:14:06.782Z,8.80
2023-03-13T00:16:35.481Z,8.90
2023-03-13T00:19:02.206Z,8.80
2023-03-13T00:21:29.856Z,8.80
2023-03-13T00:23:57.740Z,8.70
2023-03-13T00:26:26.454Z,8.70
2023-03-13T00:28:53.736Z,8.60
2023-03-13T00:31:31.611Z,8.60
2023-03-13T00:34:01.547Z,8.60
2023-03-13T00:36:31.145Z,8.60
2023-03-13T00:38:58.899Z,8.60
2023-03-13T00:41:28.077Z,8.60
2023-03-13T00:43:55.086Z,8.60
2023-03-13T00:46:24.314Z,8.60
2023-03-13T00:48:52.416Z,8.60
2023-03-13T00:51:21.294Z,8.60
2023-03-13T00:53:48.358Z,8.70
2023-03-13T00:56:20.221Z,8.70
2023-03-13T00:58:48.624Z,8.70
2023-03-13T01:01:27.033Z,8.70
2023-03-13T01:04:00.189Z,8.70
2023-03-13T01:06:30.064Z,8.80
2023-03-13T01:08:59.025Z,8.80
2023-03-13T01:11:30.896Z,8.80
2023-03-13T01:14:00.268Z,8.80
2023-03-13T01:16:28.562Z,8.80
2023-03-13T01:18:58.805Z,8.90
2023-03-13T01:21:26.495Z,8.90
2023-03-13T01:23:54.311Z,9.00
2023-03-13T01:26:22.496Z,8.90
2023-03-13T01:28:49.672Z,9.00
2023-03-13T01:31:29.216Z,9.00
2023-03-13T01:33:58.613Z,9.00
2023-03-13T01:36:25.956Z,9.10
2023-03-13T01:38:55.059Z,9.20
2023-03-13T01:41:23.140Z,9.20
2023-03-13T01:43:50.493Z,9.20
2023-03-13T01:46:19.959Z,9.20
2023-03-13T01:49:22.920Z,9.20
2023-03-13T01:52:30.990Z,9.20
2023-03-13T01:55:14.641Z,9.20
2023-03-13T01:57:50.634Z,9.20
2023-03-13T02:00:26.699Z,9.30
2023-03-13T02:02:57.801Z,9.30
2023-03-13T02:05:28.127Z,9.20
2023-03-13T02:08:00.482Z,9.20
2023-03-13T02:10:29.663Z,9.10
2023-03-13T02:12:57.574Z,9.10
2023-03-13T02:15:27.000Z,9.10
2023-03-13T02:17:54.802Z,9.10
2023-03-13T02:20:24.402Z,9.00
2023-03-13T02:22:54.518Z,9.00
2023-03-13T02:25:23.980Z,8.90
2023-03-13T02:28:03.575Z,8.90
2023-03-13T02:30:34.008Z,8.80
2023-03-13T02:33:01.781Z,8.80
2023-03-13T02:35:31.671Z,8.80
2023-03-13T02:38:05.775Z,8.80
2023-03-13T02:40:42.736Z,8.80
2023-03-13T02:43:24.035Z,8.80
2023-03-13T02:46:21.172Z,8.80
2023-03-13T02:48:54.346Z,8.70
2023-03-13T02:51:38.028Z,8.70
2023-03-13T02:54:10.184Z,8.70
2023-03-13T02:56:39.272Z,8.80
2023-03-13T02:59:07.632Z,8.80
2023-03-13T03:01:36.557Z,8.90
2023-03-13T03:04:03.242Z,8.90
2023-03-13T03:06:31.104Z,8.90
2023-03-13T03:08:58.020Z,9.00
2023-03-13T03:11:26.768Z,8.90
2023-03-13T03:13:59.504Z,8.80
2023-03-13T03:16:28.044Z,8.70
2023-03-13T03:18:54.824Z,8.60
2023-03-13T03:21:23.655Z,8.50
2023-03-13T03:23:52.224Z,8.40
2023-03-13T03:26:19.916Z,8.40
2023-03-13T03:28:46.628Z,8.30
2023-03-13T03:31:15.713Z,8.30
2023-03-13T03:33:46.980Z,8.30
2023-03-13T03:36:19.907Z,8.30
2023-03-13T03:38:47.534Z,8.30
2023-03-13T03:41:19.066Z,8.30
2023-03-13T03:43:47.265Z,8.20
2023-03-13T03:46:16.452Z,8.30
2023-03-13T03:48:43.407Z,8.30
2023-03-13T03:51:11.684Z,8.30
2023-03-13T03:53:41.222Z,8.40
2023-03-13T03:56:09.424Z,8.40
2023-03-13T03:58:40.724Z,8.30
2023-03-13T04:01:21.821Z,8.30
2023-03-13T04:03:48.795Z,8.30
2023-03-13T04:06:15.602Z,8.30
2023-03-13T04:08:42.934Z,8.30
2023-03-13T04:11:12.287Z,8.20
2023-03-13T04:13:42.224Z,8.20
2023-03-13T04:16:10.240Z,8.10
2023-03-13T04:18:37.559Z,8.10
2023-03-13T04:21:06.197Z,8.00
2023-03-13T04:23:52.588Z,8.00
2023-03-13T04:26:19.921Z,8.00
2023-03-13T04:28:46.689Z,8.00
2023-03-13T04:31:18.364Z,8.00
2023-03-13T04:34:03.586Z,8.00
2023-03-13T04:36:42.508Z,7.90
2023-03-13T04:39:28.010Z,7.90
2023-03-13T04:42:11.715Z,7.90
2023-03-13T04:44:57.233Z,7.90
2023-03-13T04:47:42.521Z,7.90
2023-03-13T04:50:32.176Z,7.90
2023-03-13T04:53:17.566Z,7.90
2023-03-13T04:55:52.316Z,7.90
2023-03-13T04:58:37.720Z,7.90
2023-03-13T05:01:13.861Z,7.90
2023-03-13T05:04:03.520Z,8.00
2023-03-13T05:06:44.350Z,8.00
2023-03-13T05:09:21.605Z,8.10
2023-03-13T05:11:51.450Z,8.10
2023-03-13T05:14:30.889Z,8.20
2023-03-13T05:17:17.549Z,8.20
2023-03-13T05:20:13.712Z,8.30
2023-03-13T05:23:06.532Z,8.50
2023-03-13T05:25:53.504Z,8.60
2023-03-13T05:28:46.183Z,8.90
2023-03-13T05:31:33.274Z,9.20
2023-03-13T05:34:20.180Z,9.50
2023-03-13T05:37:07.076Z,9.60
2023-03-13T05:39:56.836Z,9.80
2023-03-13T05:42:32.968Z,9.80
2023-03-13T05:45:11.492Z,9.90
2023-03-13T05:47:50.410Z,10.00
2023-03-13T05:50:35.775Z,10.00
2023-03-13T05:53:17.656Z,10.10
2023-03-13T05:56:04.328Z,10.10
2023-03-13T05:59:03.406Z,10.10
2023-03-13T06:01:32.814Z,10.10
2023-03-13T06:04:04.875Z,10.20
2023-03-13T06:06:34.539Z,10.20
2023-03-13T06:09:01.997Z,10.20
2023-03-13T06:11:31.120Z,10.20
2023-03-13T06:13:57.898Z,10.20
2023-03-13T06:16:39.326Z,10.20
2023-03-13T06:19:18.114Z,10.20
2023-03-13T06:21:45.018Z,10.20
2023-03-13T06:24:11.777Z,10.30
2023-03-13T06:26:38.390Z,10.30
2023-03-13T06:29:05.041Z,10.30
2023-03-13T06:31:32.530Z,10.40
2023-03-13T06:33:59.226Z,10.40
2023-03-13T06:36:26.015Z,10.40
2023-03-13T06:38:52.679Z,10.40
2023-03-13T06:41:19.679Z,10.40
2023-03-13T06:43:46.321Z,10.50
2023-03-13T06:46:19.176Z,10.50
2023-03-13T06:48:46.331Z,10.50
2023-03-13T06:51:14.766Z,10.50
2023-03-13T06:53:42.360Z,10.50
2023-03-13T06:56:09.552Z,10.50
2023-03-13T06:58:36.575Z,10.60
2023-03-13T07:01:09.321Z,10.60
2023-03-13T07:03:36.458Z,10.70
2023-03-13T07:06:03.816Z,10.70
2023-03-13T07:08:30.504Z,10.80
2023-03-13T07:11:05.801Z,10.80
2023-03-13T07:13:32.748Z,10.80
2023-03-13T07:16:04.525Z,10.90
2023-03-13T07:18:32.038Z,10.90
2023-03-13T07:21:00.543Z,10.80
2023-03-13T07:23:29.636Z,10.90
2023-03-13T07:25:58.963Z,10.90
2023-03-13T07:28:26.554Z,10.90
2023-03-13T07:30:53.851Z,11.00
2023-03-13T07:33:22.734Z,11.10
2023-03-13T07:35:51.111Z,11.10
2023-03-13T07:38:21.688Z,11.10
2023-03-13T07:40:53.401Z,11.10
2023-03-13T07:43:20.989Z,11.20
2023-03-13T07:45:59.208Z,11.30
2023-03-13T07:48:29.633Z,11.30
2023-03-13T07:50:56.476Z,11.40
2023-03-13T07:53:23.558Z,11.40
2023-03-13T07:56:00.152Z,11.40
2023-03-13T07:58:33.804Z,11.40
2023-03-13T08:01:00.767Z,11.40
2023-03-13T08:03:28.898Z,11.40
2023-03-13T08:06:10.743Z,11.50
2023-03-13T08:08:38.491Z,11.60
2023-03-13T08:11:07.760Z,11.60
2023-03-13T08:13:35.645Z,11.70
2023-03-13T08:16:17.253Z,11.70
2023-03-13T08:18:46.275Z,11.80
2023-03-13T08:21:18.478Z,11.80
2023-03-13T08:23:45.764Z,11.90
2023-03-13T08:26:15.761Z,11.90
2023-03-13T08:28:43.820Z,12.00
2023-03-13T08:31:22.312Z,11.90
2023-03-13T08:33:49.602Z,11.90
2023-03-13T08:36:27.440Z,12.00
2023-03-13T08:38:55.667Z,12.10
2023-03-13T08:41:28.823Z,12.20
2023-03-13T08:43:56.826Z,12.20
2023-03-13T08:46:24.280Z,12.20
2023-03-13T08:48:52.666Z,12.20
2023-03-13T08:51:21.119Z,12.30
2023-03-13T08:53:48.295Z,12.30
2023-03-13T08:56:17.513Z,12.30
2023-03-13T08:58:44.608Z,12.30
2023-03-13T09:01:14.091Z,12.30
2023-03-13T09:03:42.053Z,12.40
2023-03-13T09:06:10.236Z,12.40
2023-03-13T09:08:38.073Z,12.40
2023-03-13T09:11:10.462Z,12.40
2023-03-13T09:13:40.113Z,12.50
2023-03-13T09:16:10.104Z,12.40
2023-03-13T09:18:37.222Z,12.50
2023-03-13T09:21:10.376Z,12.50
2023-03-13T09:23:37.004Z,12.60
2023-03-13T09:26:04.452Z,12.60
2023-03-13T09:28:31.312Z,12.60
2023-03-13T09:31:14.867Z,12.60
2023-03-13T09:33:43.085Z,12.70
2023-03-13T09:36:10.356Z,12.70
2023-03-13T09:38:37.688Z,12.70
2023-03-13T09:41:34.785Z,12.80
2023-03-13T09:44:11.168Z,12.70
2023-03-13T09:46:53.278Z,12.70
2023-03-13T09:49:37.631Z,12.70
2023-03-13T09:52:24.693Z,12.80
2023-03-13T09:55:04.653Z,12.70
2023-03-13T09:57:44.810Z,12.70
2023-03-13T10:00:38.107Z,12.80
2023-03-13T10:03:10.773Z,12.80
2023-03-13T10:05:43.957Z,12.90
2023-03-13T10:08:25.666Z,12.90
2023-03-13T10:11:01.039Z,12.80
2023-03-13T10:13:54.305Z,12.80
2023-03-13T10:16:30.934Z,12.80
2023-03-13T10:18:59.757Z,12.70
2023-03-13T10:21:34.002Z,12.50
2023-03-13T10:24:48.586Z,12.50
2023-03-13T10:27:16.024Z,12.40
2023-03-13T10:29:42.740Z,12.30
2023-03-13T10:32:15.836Z,12.30
2023-03-13T10:35:00.404Z,12.30
2023-03-13T10:37:30.199Z,12.50
2023-03-13T10:40:26.819Z,12.70
2023-03-13T10:43:00.900Z,13.00
2023-03-13T10:45:30.816Z,13.10
2023-03-13T10:48:01.298Z,13.10
2023-03-13T10:50:32.230Z,13.10
2023-03-13T10:53:30.930Z,13.20
2023-03-13T10:56:10.325Z,13.30
2023-03-13T10:58:41.505Z,13.30
2023-03-13T11:01:28.698Z,13.40
2023-03-13T11:03:57.631Z,13.40
2023-03-13T11:06:31.416Z,13.50
2023-03-13T11:09:10.188Z,13.60
2023-03-13T11:11:48.693Z,13.60
2023-03-13T11:14:34.820Z,13.60
2023-03-13T11:17:23.823Z,13.70
2023-03-13T11:20:05.682Z,13.80
2023-03-13T11:22:47.532Z,13.90
2023-03-13T11:25:21.984Z,13.80
2023-03-13T11:28:04.200Z,14.00
2023-03-13T11:31:02.713Z,14.10
2023-03-13T11:33:58.817Z,14.20
2023-03-13T11:36:43.108Z,14.30
2023-03-13T11:39:21.744Z,14.50
2023-03-13T11:42:02.207Z,14.70
2023-03-13T11:44:28.855Z,14.80
2023-03-13T11:47:23.358Z,14.80
2023-03-13T11:50:26.070Z,14.80
2023-03-13T11:53:13.654Z,14.80
2023-03-13T11:55:49.307Z,14.70
2023-03-13T11:58:41.636Z,14.70
2023-03-13T12:01:19.973Z,14.70
2023-03-13T12:04:02.013Z,14.60
2023-03-13T12:06:32.556Z,14.60
2023-03-13T12:09:22.971Z,14.70
2023-03-13T12:12:03.379Z,14.60
2023-03-13T12:15:07.789Z,14.60
2023-03-13T12:17:40.240Z,14.60
2023-03-13T12:20:44.741Z,14.60
2023-03-13T12:23:15.826Z,14.70
2023-03-13T12:26:04.439Z,14.70
2023-03-13T12:29:07.967Z,14.70
2023-03-13T12:31:57.877Z,14.60
2023-03-13T12:34:34.449Z,14.60
2023-03-13T12:37:21.536Z,14.60
2023-03-13T12:40:08.612Z,14.70
2023-03-13T12:42:53.699Z,14.70
2023-03-13T12:45:24.236Z,14.70
2023-03-13T12:48:20.175Z,14.80
2023-03-13T12:51:04.494Z,14.80
2023-03-13T12:53:55.616Z,14.80
2023-03-13T12:56:38.404Z,14.90
2023-03-13T12:59:16.021Z,14.90
2023-03-13T13:01:48.133Z,14.90
2023-03-13T13:04:33.600Z,15.00
2023-03-13T13:07:04.251Z,15.00
2023-03-13T13:09:40.267Z,15.00
2023-03-13T13:12:16.363Z,15.00
2023-03-13T13:14:49.139Z,15.10
2023-03-13T13:17:31.558Z,15.00
2023-03-13T13:19:58.298Z,15.00
2023-03-13T13:22:36.477Z,15.10
2023-03-13T13:25:27.501Z,15.10
2023-03-13T13:27:54.355Z,15.00
2023-03-13T13:30:21.024Z,15.00
2023-03-13T13:32:54.865Z,15.00
2023-03-13T13:35:28.789Z,15.00
2023-03-13T13:38:28.954Z,15.00
2023-03-13T13:40:58.576Z,14.90
2023-03-13T13:43:25.660Z,14.80
2023-03-13T13:46:07.126Z,14.90
2023-03-13T13:48:39.798Z,14.90
2023-03-13T13:51:13.938Z,14.90
2023-03-13T13:53:44.965Z,15.00
2023-03-13T13:56:36.763Z,15.00
2023-03-13T13:59:21.942Z,15.00
2023-03-13T14:02:13.862Z,15.00
2023-03-13T14:04:53.045Z,15.00
2023-03-13T14:07:26.743Z,15.00
2023-03-13T14:10:21.034Z,15.00
2023-03-13T14:12:55.762Z,14.90
2023-03-13T14:15:28.632Z,14.90
2023-03-13T14:18:13.177Z,14.90
2023-03-13T14:20:58.956Z,15.10
2023-03-13T14:23:35.294Z,15.00
2023-03-13T14:26:27.595Z,15.00
2023-03-13T14:28:58.349Z,15.00
2023-03-13T14:31:27.822Z,15.10
2023-03-13T14:33:56.596Z,15.10
2023-03-13T14:36:23.581Z,15.10
2023-03-13T14:39:00.965Z,15.10
2023-03-13T14:41:36.222Z,15.20
2023-03-13T14:44:05.776Z,15.20
2023-03-13T14:46:39.894Z,15.10
2023-03-13T14:49:21.165Z,15.10
2023-03-13T14:52:02.695Z,15.20
2023-03-13T14:54:37.643Z,15.10
2023-03-13T14:57:21.208Z,15.20
2023-03-13T14:59:48.341Z,15.20
2023-03-13T15:02:24.339Z,15.30
2023-03-13T15:04:55.896Z,15.30
2023-03-13T15:07:23.536Z,15.30
2023-03-13T15:09:51.512Z,15.30
2023-03-13T15:12:22.053Z,15.20
2023-03-13T15:14:50.875Z,15.20
2023-03-13T15:17:22.237Z,15.20
2023-03-13T15:19:57.567Z,15.10
2023-03-13T15:22:53.661Z,15.00
2023-03-13T15:25:23.872Z,15.00
2023-03-13T15:27:50.803Z,14.90
2023-03-13T15:30:20.100Z,14.90
2023-03-13T15:32:47.147Z,14.80
2023-03-13T15:35:33.255Z,14.80
2023-03-13T15:38:01.634Z,14.50
2023-03-13T15:40:30.793Z,14.10
2023-03-13T15:42:58.167Z,13.80
2023-03-13T15:45:25.013Z,13.60
2023-03-13T15:47:52.242Z,13.50
2023-03-13T15:50:20.515Z,13.50
2023-03-13T15:52:47.214Z,13.50
2023-03-13T15:55:14.331Z,13.50
2023-03-13T15:57:50.365Z,13.50
2023-03-13T16:00:25.549Z,13.50
2023-03-13T16:02:52.645Z,13.60
2023-03-13T16:05:19.439Z,13.60
2023-03-13T16:07:46.184Z,13.60
2023-03-13T16:10:25.223Z,13.70
2023-03-13T16:12:53.030Z,13.70
2023-03-13T16:15:19.925Z,13.80
2023-03-13T16:17:46.581Z,13.80
2023-03-13T16:20:21.507Z,13.90
2023-03-13T16:22:48.222Z,13.90
2023-03-13T16:25:15.363Z,13.90
2023-03-13T16:27:42.169Z,13.90
2023-03-13T16:30:19.253Z,13.90
2023-03-13T16:32:46.238Z,13.80
2023-03-13T16:35:13.394Z,13.80
2023-03-13T16:37:40.414Z,13.70
2023-03-13T16:40:22.743Z,13.70
2023-03-13T16:42:49.552Z,13.70
2023-03-13T16:45:16.484Z,13.70
2023-03-13T16:47:44.448Z,13.70
2023-03-13T16:50:31.912Z,13.70
2023-03-13T16:52:58.987Z,13.80
2023-03-13T16:55:28.494Z,13.80
2023-03-13T16:57:59.197Z,13.80
2023-03-13T17:00:29.430Z,13.80
2023-03-13T17:02:57.910Z,13.90
2023-03-13T17:05:26.790Z,13.90
2023-03-13T17:07:54.084Z,13.80
2023-03-13T17:10:24.160Z,13.80
2023-03-13T17:12:53.350Z,13.70
2023-03-13T17:15:20.834Z,13.70
2023-03-13T17:17:51.548Z,13.60
2023-03-13T17:20:21.094Z,13.60
2023-03-13T17:22:47.831Z,13.50
2023-03-13T17:25:14.596Z,13.40
2023-03-13T17:27:42.881Z,13.40
2023-03-13T17:30:18.510Z,13.30
2023-03-13T17:32:45.238Z,13.30
2023-03-13T17:35:11.909Z,13.20
2023-03-13T17:37:38.810Z,13.10
2023-03-13T17:40:21.060Z,13.10
2023-03-13T17:42:48.413Z,13.00
2023-03-13T17:45:16.006Z,12.90
2023-03-13T17:47:42.837Z,12.80
2023-03-13T17:50:21.914Z,12.80
2023-03-13T17:52:49.083Z,12.70
2023-03-13T17:55:15.844Z,12.60
2023-03-13T17:57:43.797Z,12.60
2023-03-13T18:00:24.977Z,12.60
2023-03-13T18:02:51.965Z,12.50
2023-03-13T18:05:18.864Z,12.60
2023-03-13T18:07:45.635Z,12.60
2023-03-13T18:10:27.677Z,12.60
2023-03-13T18:12:54.928Z,12.60
2023-03-13T18:15:23.642Z,12.50
2023-03-13T18:17:50.700Z,12.50
2023-03-13T18:20:24.952Z,12.50
2023-03-13T18:22:51.830Z,12.50
2023-03-13T18:25:19.304Z,12.50
2023-03-13T18:27:45.953Z,12.50
2023-03-13T18:30:18.545Z,12.50
2023-03-13T18:32:46.329Z,12.40
2023-03-13T18:35:13.703Z,12.50
2023-03-13T18:37:42.607Z,12.40
2023-03-13T18:40:30.964Z,12.30
2023-03-13T18:42:57.719Z,12.30
2023-03-13T18:45:28.097Z,12.20
2023-03-13T18:47:55.152Z,12.10
2023-03-13T18:50:28.501Z,12.10
2023-03-13T18:52:57.566Z,12.00
2023-03-13T18:55:26.525Z,11.90
2023-03-13T18:57:53.283Z,11.90
2023-03-13T19:00:25.596Z,11.80
2023-03-13T19:02:52.686Z,11.80
2023-03-13T19:05:19.937Z,11.70
2023-03-13T19:07:47.064Z,11.70
2023-03-13T19:10:28.952Z,11.70
2023-03-13T19:12:56.588Z,11.60
2023-03-13T19:15:27.618Z,11.60
2023-03-13T19:17:55.973Z,11.60
2023-03-13T19:20:23.263Z,11.60
2023-03-13T19:22:49.928Z,11.70
2023-03-13T19:25:17.134Z,11.80
2023-03-13T19:27:44.535Z,11.90
2023-03-13T19:30:18.707Z,12.00
2023-03-13T19:32:45.534Z,12.10
2023-03-13T19:35:12.707Z,12.10
2023-03-13T19:37:40.218Z,12.10
2023-03-13T19:40:15.398Z,12.10
2023-03-13T19:42:41.977Z,12.10
2023-03-13T19:45:09.117Z,12.00
2023-03-13T19:47:35.744Z,12.00
2023-03-13T19:50:02.396Z,12.00
2023-03-13T19:52:29.524Z,11.90
2023-03-13T19:54:57.267Z,11.90
2023-03-13T19:57:24.093Z,11.90
2023-03-13T19:59:50.684Z,11.90
2023-03-13T20:02:17.504Z,11.80
2023-03-13T20:04:45.706Z,11.80
2023-03-13T20:07:12.480Z,11.80
2023-03-13T20:09:39.133Z,11.80
2023-03-13T20:12:05.947Z,11.80
2023-03-13T20:14:32.654Z,11.70
2023-03-13T20:16:59.789Z,11.70
2023-03-13T20:19:29.164Z,11.70
2023-03-13T20:21:59.975Z,11.50
2023-03-13T20:24:26.570Z,11.50
2023-03-13T20:26:55.513Z,11.50
2023-03-13T20:29:22.179Z,11.40
2023-03-13T20:31:50.504Z,11.40
2023-03-13T20:34:18.238Z,11.30
2023-03-13T20:36:44.806Z,11.30
2023-03-13T20:39:11.447Z,11.30
2023-03-13T20:41:38.064Z,11.30
2023-03-13T20:44:04.849Z,11.40
2023-03-13T20:46:31.498Z,11.30
2023-03-13T20:48:59.103Z,11.30
2023-03-13T20:51:26.062Z,11.30
2023-03-13T20:53:52.662Z,11.30
2023-03-13T20:56:19.333Z,11.30
2023-03-13T20:58:45.965Z,11.40
2023-03-13T21:01:12.586Z,11.40
2023-03-13T21:03:39.336Z,11.50
2023-03-13T21:06:14.873Z,11.60
2023-03-13T21:08:42.160Z,11.70
2023-03-13T21:11:13.057Z,11.70
2023-03-13T21:13:39.707Z,11.60
2023-03-13T21:16:06.817Z,11.70
2023-03-13T21:18:33.556Z,11.60
2023-03-13T21:21:08.864Z,11.50
2023-03-13T21:23:37.577Z,11.60
2023-03-13T21:26:04.333Z,11.60
2023-03-13T21:28:31.198Z,11.60
2023-03-13T21:30:57.847Z,11.50
2023-03-13T21:33:25.492Z,11.30
2023-03-13T21:35:52.300Z,11.20
2023-03-13T21:38:19.011Z,11.10
2023-03-13T21:40:45.678Z,11.00
2023-03-13T21:43:12.269Z,11.00
2023-03-13T21:45:38.934Z,10.90
2023-03-13T21:48:05.627Z,10.90
2023-03-13T21:50:32.614Z,10.90
2023-03-13T21:52:59.402Z,10.90
2023-03-13T21:55:26.023Z,10.90
2023-03-13T21:57:52.661Z,10.90
2023-03-13T22:00:19.516Z,10.90
2023-03-13T22:02:46.228Z,10.90
2023-03-13T22:05:12.861Z,10.80
2023-03-13T22:07:39.668Z,10.80
2023-03-13T22:10:06.975Z,10.70
2023-03-13T22:12:33.774Z,10.60
2023-03-13T22:15:00.780Z,10.50
2023-03-13T22:17:27.347Z,10.40
2023-03-13T22:19:53.984Z,10.40
2023-03-13T22:22:21.849Z,10.40
2023-03-13T22:24:48.716Z,10.40
2023-03-13T22:27:15.481Z,10.30
2023-03-13T22:29:42.063Z,10.30
2023-03-13T22:32:09.507Z,10.20
2023-03-13T22:34:36.291Z,10.20
2023-03-13T22:37:03.292Z,10.20
2023-03-13T22:39:32.265Z,10.20
2023-03-13T22:41:58.894Z,10.20
2023-03-13T22:44:25.494Z,10.10
2023-03-13T22:46:52.105Z,10.20
2023-03-13T22:49:18.732Z,10.20
2023-03-13T22:51:45.355Z,10.20
2023-03-13T22:54:13.257Z,10.20
2023-03-13T22:56:39.848Z,10.10
2023-03-13T22:59:06.502Z,10.10
2023-03-13T23:01:33.184Z,10.00
2023-03-13T23:04:00.221Z,10.00
2023-03-13T23:06:27.132Z,10.00
2023-03-13T23:08:53.807Z,10.00
2023-03-13T23:11:20.899Z,10.00
2023-03-13T23:13:48.233Z,10.00
2023-03-13T23:16:15.094Z,10.00
2023-03-13T23:18:42.147Z,10.00
2023-03-13T23:21:11.773Z,10.10
2023-03-13T23:23:38.930Z,10.10
2023-03-13T23:26:08.880Z,10.20
2023-03-13T23:28:37.062Z,10.20
2023-03-13T23:31:18.716Z,10.30
2023-03-13T23:33:46.041Z,10.40
2023-03-13T23:36:16.165Z,10.50
2023-03-13T23:38:43.102Z,10.50
2023-03-13T23:41:14.075Z,10.60
2023-03-13T23:43:40.917Z,10.60
2023-03-13T23:46:18.863Z,10.60
2023-03-13T23:48:45.505Z,10.60
2023-03-13T23:51:12.286Z,10.60
2023-03-13T23:53:41.888Z,10.50
2023-03-13T23:56:09.072Z,10.40
2023-03-13T23:58:35.755Z,10.40
